sensor_id;sensor_type;location;lat;lon;timestamp;P1;durP1;ratioP1;P2;durP2;ratioP2
59653;SDS011;66556;52.008;5.432;2023-03-01T00:01:09;14.3;;;10.5;;
59653;SDS011;66556;52.008;5.432;2023-03-01T00:02:49;15.1;;;11.3;;
59653;SDS011;66556;52.008;5.432;2023-03-01T00:04:26;13.8;;;10.8;;
59653;SDS011;66556;52.008;5.432;2023-03-01T00:07:40;13.5;;;11.1;;
59653;SDS011;66556;52.008;5.432;2023-03-01T00:09:16;16.0;;;11.3;;
59653;SDS011;66556;52.008;5.432;2023-03-01T00:11:01;16.7;;;11.0;;
59653;SDS011;66556;52.008;5.432;2023-03-01T00:14:15;18.5;;;10.9;;
59653;SDS011;66556;52.008;5.432;2023-03-01T00:15:51;18.3;;;11.2;;
59653;SDS011;66556;52.008;5.432;2023-03-01T00:17:28;14.0;;;10.3;;
59653;SDS011;66556;52.008;5.432;2023-03-01T00:19:04;15.5;;;10.8;;
59653;SDS011;66556;52.008;5.432;2023-03-01T00:22:17;16.4;;;11.0;;
59653;SDS011;66556;52.008;5.432;2023-03-01T00:23:54;18.91;;;11.2;;
59653;SDS011;66556;52.008;5.432;2023-03-01T00:25:30;26.9;;;16.8;;
59653;SDS011;66556;52.008;5.432;2023-03-01T00:28:43;27.2;;;15.8;;
59653;SDS011;66556;52.008;5.432;2023-03-01T00:30:20;22.5;;;14.0;;
59653;SDS011;66556;52.008;5.432;2023-03-01T00:31:56;17.3;;;11.0;;
59653;SDS011;66556;52.008;5.432;2023-03-01T00:35:09;16.3;;;10.8;;
59653;SDS011;66556;52.008;5.432;2023-03-01T00:36:45;14.8;;;10.1;;
59653;SDS011;66556;52.008;5.432;2023-03-01T00:38:22;15.7;;;10.21;;
59653;SDS011;66556;52.008;5.432;2023-03-01T00:39:58;14.8;;;9.71;;
59653;SDS011;66556;52.008;5.432;2023-03-01T00:43:10;13.6;;;9.9;;
59653;SDS011;66556;52.008;5.432;2023-03-01T00:44:46;15.1;;;10.8;;
59653;SDS011;66556;52.008;5.432;2023-03-01T00:46:23;15.1;;;9.4;;
59653;SDS011;66556;52.008;5.432;2023-03-01T00:49:38;13.6;;;9.71;;
59653;SDS011;66556;52.008;5.432;2023-03-01T00:51:15;13.9;;;9.4;;
59653;SDS011;66556;52.008;5.432;2023-03-01T00:52:53;15.5;;;10.21;;
59653;SDS011;66556;52.008;5.432;2023-03-01T00:56:08;15.0;;;9.9;;
59653;SDS011;66556;52.008;5.432;2023-03-01T00:57:45;15.3;;;10.0;;
59653;SDS011;66556;52.008;5.432;2023-03-01T00:59:21;15.7;;;10.4;;
59653;SDS011;66556;52.008;5.432;2023-03-01T01:00:58;15.4;;;10.8;;
59653;SDS011;66556;52.008;5.432;2023-03-01T01:04:12;14.9;;;10.6;;
59653;SDS011;66556;52.008;5.432;2023-03-01T01:05:49;15.1;;;10.9;;
59653;SDS011;66556;52.008;5.432;2023-03-01T01:07:25;15.1;;;10.9;;
59653;SDS011;66556;52.008;5.432;2023-03-01T01:10:42;15.4;;;10.6;;
59653;SDS011;66556;52.008;5.432;2023-03-01T01:12:20;15.0;;;10.7;;
59653;SDS011;66556;52.008;5.432;2023-03-01T01:13:56;15.8;;;10.6;;
59653;SDS011;66556;52.008;5.432;2023-03-01T01:15:33;15.4;;;10.5;;
59653;SDS011;66556;52.008;5.432;2023-03-01T01:18:46;16.0;;;11.0;;
59653;SDS011;66556;52.008;5.432;2023-03-01T01:20:22;18.91;;;10.8;;
59653;SDS011;66556;52.008;5.432;2023-03-01T01:21:58;15.8;;;10.9;;
59653;SDS011;66556;52.008;5.432;2023-03-01T01:25:12;15.7;;;11.4;;
59653;SDS011;66556;52.008;5.432;2023-03-01T01:26:48;18.91;;;11.5;;
59653;SDS011;66556;52.008;5.432;2023-03-01T01:28:25;15.7;;;11.0;;
59653;SDS011;66556;52.008;5.432;2023-03-01T01:31:39;18.0;;;11.8;;
59653;SDS011;66556;52.008;5.432;2023-03-01T01:33:17;13.3;;;11.1;;
59653;SDS011;66556;52.008;5.432;2023-03-01T01:34:53;15.6;;;11.7;;
59653;SDS011;66556;52.008;5.432;2023-03-01T01:36:30;14.4;;;11.3;;
59653;SDS011;66556;52.008;5.432;2023-03-01T01:39:45;14.6;;;11.3;;
59653;SDS011;66556;52.008;5.432;2023-03-01T01:41:21;15.2;;;10.9;;
59653;SDS011;66556;52.008;5.432;2023-03-01T01:42:59;14.4;;;10.7;;
59653;SDS011;66556;52.008;5.432;2023-03-01T01:46:15;15.1;;;11.2;;
59653;SDS011;66556;52.008;5.432;2023-03-01T01:47:57;16.2;;;11.1;;
59653;SDS011;66556;52.008;5.432;2023-03-01T01:49:40;14.7;;;11.3;;
59653;SDS011;66556;52.008;5.432;2023-03-01T01:51:21;16.4;;;12.4;;
59653;SDS011;66556;52.008;5.432;2023-03-01T01:54:40;16.5;;;12.4;;
59653;SDS011;66556;52.008;5.432;2023-03-01T01:56:21;17.7;;;12.4;;
59653;SDS011;66556;52.008;5.432;2023-03-01T01:58:02;17.11;;;12.2;;
59653;SDS011;66556;52.008;5.432;2023-03-01T01:59:43;16.7;;;12.5;;
59653;SDS011;66556;52.008;5.432;2023-03-01T02:03:04;19.7;;;13.5;;
59653;SDS011;66556;52.008;5.432;2023-03-01T02:04:44;18.8;;;12.9;;
59653;SDS011;66556;52.008;5.432;2023-03-01T02:06:24;18.11;;;13.4;;
59653;SDS011;66556;52.008;5.432;2023-03-01T02:08:05;21.2;;;13.4;;
59653;SDS011;66556;52.008;5.432;2023-03-01T02:11:24;19.8;;;13.6;;
59653;SDS011;66556;52.008;5.432;2023-03-01T02:13:03;21.3;;;15.0;;
59653;SDS011;66556;52.008;5.432;2023-03-01T02:14:40;20.11;;;14.6;;
59653;SDS011;66556;52.008;5.432;2023-03-01T02:16:16;20.2;;;14.8;;
59653;SDS011;66556;52.008;5.432;2023-03-01T02:19:35;19.5;;;14.9;;
59653;SDS011;66556;52.008;5.432;2023-03-01T02:21:38;21.1;;;14.7;;
59653;SDS011;66556;52.008;5.432;2023-03-01T02:23:25;22.3;;;15.0;;
59653;SDS011;66556;52.008;5.432;2023-03-01T02:25:04;20.11;;;15.6;;
59653;SDS011;66556;52.008;5.432;2023-03-01T02:26:51;23.2;;;15.7;;
59653;SDS011;66556;52.008;5.432;2023-03-01T02:30:10;23.2;;;16.4;;
59653;SDS011;66556;52.008;5.432;2023-03-01T02:31:46;21.0;;;14.9;;
59653;SDS011;66556;52.008;5.432;2023-03-01T02:33:24;19.7;;;15.1;;
59653;SDS011;66556;52.008;5.432;2023-03-01T02:35:02;22.3;;;15.9;;
59653;SDS011;66556;52.008;5.432;2023-03-01T02:38:18;22.3;;;15.9;;
59653;SDS011;66556;52.008;5.432;2023-03-01T02:39:56;21.5;;;15.7;;
59653;SDS011;66556;52.008;5.432;2023-03-01T02:41:37;24.5;;;16.7;;
59653;SDS011;66556;52.008;5.432;2023-03-01T02:44:57;22.8;;;15.9;;
59653;SDS011;66556;52.008;5.432;2023-03-01T02:46:35;20.9;;;16.11;;
59653;SDS011;66556;52.008;5.432;2023-03-01T02:48:18;19.3;;;14.9;;
59653;SDS011;66556;52.008;5.432;2023-03-01T02:49:55;22.5;;;16.3;;
59653;SDS011;66556;52.008;5.432;2023-03-01T02:53:25;21.5;;;15.8;;
59653;SDS011;66556;52.008;5.432;2023-03-01T02:55:10;24.2;;;15.5;;
59653;SDS011;66556;52.008;5.432;2023-03-01T02:56:50;21.4;;;16.3;;
59653;SDS011;66556;52.008;5.432;2023-03-01T02:58:27;28.3;;;16.7;;
59653;SDS011;66556;52.008;5.432;2023-03-01T03:00:04;23.6;;;16.8;;
59653;SDS011;66556;52.008;5.432;2023-03-01T03:03:20;23.0;;;16.8;;
59653;SDS011;66556;52.008;5.432;2023-03-01T03:04:57;21.4;;;16.4;;
59653;SDS011;66556;52.008;5.432;2023-03-01T03:06:33;24.1;;;17.0;;
59653;SDS011;66556;52.008;5.432;2023-03-01T03:09:46;22.5;;;16.5;;
59653;SDS011;66556;52.008;5.432;2023-03-01T03:11:22;23.2;;;17.3;;
59653;SDS011;66556;52.008;5.432;2023-03-01T03:12:59;23.4;;;16.5;;
59653;SDS011;66556;52.008;5.432;2023-03-01T03:16:13;22.8;;;16.8;;
59653;SDS011;66556;52.008;5.432;2023-03-01T03:17:50;23.2;;;16.4;;
59653;SDS011;66556;52.008;5.432;2023-03-01T03:19:28;18.7;;;15.1;;
59653;SDS011;66556;52.008;5.432;2023-03-01T03:21:06;23.7;;;16.4;;
59653;SDS011;66556;52.008;5.432;2023-03-01T03:24:19;20.41;;;15.3;;
59653;SDS011;66556;52.008;5.432;2023-03-01T03:25:55;20.3;;;15.5;;
59653;SDS011;66556;52.008;5.432;2023-03-01T03:27:31;18.2;;;14.4;;
59653;SDS011;66556;52.008;5.432;2023-03-01T03:30:44;19.11;;;15.1;;
59653;SDS011;66556;52.008;5.432;2023-03-01T03:32:20;20.8;;;14.7;;
59653;SDS011;66556;52.008;5.432;2023-03-01T03:33:56;21.5;;;15.0;;
59653;SDS011;66556;52.008;5.432;2023-03-01T03:37:15;18.7;;;14.1;;
59653;SDS011;66556;52.008;5.432;2023-03-01T03:38:52;19.3;;;13.6;;
59653;SDS011;66556;52.008;5.432;2023-03-01T03:40:28;21.4;;;14.2;;
59653;SDS011;66556;52.008;5.432;2023-03-01T03:42:08;15.7;;;12.5;;
59653;SDS011;66556;52.008;5.432;2023-03-01T03:45:20;17.11;;;11.8;;
59653;SDS011;66556;52.008;5.432;2023-03-01T03:46:56;15.0;;;11.2;;
59653;SDS011;66556;52.008;5.432;2023-03-01T03:48:33;18.91;;;11.2;;
59653;SDS011;66556;52.008;5.432;2023-03-01T03:51:47;14.7;;;10.9;;
59653;SDS011;66556;52.008;5.432;2023-03-01T03:53:25;13.3;;;10.4;;
59653;SDS011;66556;52.008;5.432;2023-03-01T03:55:03;14.2;;;10.1;;
59653;SDS011;66556;52.008;5.432;2023-03-01T03:56:40;16.11;;;10.0;;
59653;SDS011;66556;52.008;5.432;2023-03-01T03:59:54;14.9;;;10.3;;
59653;SDS011;66556;52.008;5.432;2023-03-01T04:01:30;14.2;;;9.81;;
59653;SDS011;66556;52.008;5.432;2023-03-01T04:03:07;12.5;;;9.6;;
59653;SDS011;66556;52.008;5.432;2023-03-01T04:06:21;15.5;;;10.1;;
59653;SDS011;66556;52.008;5.432;2023-03-01T04:07:58;12.0;;;9.31;;
59653;SDS011;66556;52.008;5.432;2023-03-01T04:09:35;13.6;;;9.4;;
59653;SDS011;66556;52.008;5.432;2023-03-01T04:11:11;11.6;;;9.0;;
59653;SDS011;66556;52.008;5.432;2023-03-01T04:14:24;13.7;;;9.5;;
59653;SDS011;66556;52.008;5.432;2023-03-01T04:16:01;13.2;;;9.4;;
59653;SDS011;66556;52.008;5.432;2023-03-01T04:17:37;12.1;;;9.31;;
59653;SDS011;66556;52.008;5.432;2023-03-01T04:20:49;11.8;;;9.1;;
59653;SDS011;66556;52.008;5.432;2023-03-01T04:22:26;15.3;;;9.21;;
59653;SDS011;66556;52.008;5.432;2023-03-01T04:24:03;14.4;;;8.6;;
59653;SDS011;66556;52.008;5.432;2023-03-01T04:27:17;11.9;;;8.9;;
59653;SDS011;66556;52.008;5.432;2023-03-01T04:28:54;11.9;;;9.31;;
59653;SDS011;66556;52.008;5.432;2023-03-01T04:30:30;12.3;;;9.1;;
59653;SDS011;66556;52.008;5.432;2023-03-01T04:32:06;12.5;;;8.9;;
59653;SDS011;66556;52.008;5.432;2023-03-01T04:35:20;11.6;;;8.81;;
59653;SDS011;66556;52.008;5.432;2023-03-01T04:36:56;14.3;;;9.1;;
59653;SDS011;66556;52.008;5.432;2023-03-01T04:38:32;12.4;;;9.0;;
59653;SDS011;66556;52.008;5.432;2023-03-01T04:41:46;12.4;;;8.81;;
59653;SDS011;66556;52.008;5.432;2023-03-01T04:43:23;11.9;;;9.31;;
59653;SDS011;66556;52.008;5.432;2023-03-01T04:44:59;14.0;;;9.9;;
59653;SDS011;66556;52.008;5.432;2023-03-01T04:48:12;12.6;;;9.71;;
59653;SDS011;66556;52.008;5.432;2023-03-01T04:49:49;13.5;;;10.0;;
59653;SDS011;66556;52.008;5.432;2023-03-01T04:51:25;16.3;;;10.6;;
59653;SDS011;66556;52.008;5.432;2023-03-01T04:53:01;13.2;;;10.6;;
59653;SDS011;66556;52.008;5.432;2023-03-01T04:56:14;20.41;;;10.1;;
59653;SDS011;66556;52.008;5.432;2023-03-01T04:57:51;12.7;;;10.3;;
59653;SDS011;66556;52.008;5.432;2023-03-01T04:59:29;14.1;;;10.3;;
59653;SDS011;66556;52.008;5.432;2023-03-01T05:02:47;12.1;;;9.6;;
59653;SDS011;66556;52.008;5.432;2023-03-01T05:04:24;15.1;;;9.9;;
59653;SDS011;66556;52.008;5.432;2023-03-01T05:06:00;13.2;;;9.4;;
59653;SDS011;66556;52.008;5.432;2023-03-01T05:09:12;12.9;;;9.5;;
59653;SDS011;66556;52.008;5.432;2023-03-01T05:10:50;12.4;;;8.9;;
59653;SDS011;66556;52.008;5.432;2023-03-01T05:12:28;13.2;;;8.9;;
59653;SDS011;66556;52.008;5.432;2023-03-01T05:14:04;12.3;;;8.2;;
59653;SDS011;66556;52.008;5.432;2023-03-01T05:17:18;10.8;;;8.31;;
59653;SDS011;66556;52.008;5.432;2023-03-01T05:18:54;12.4;;;8.4;;
59653;SDS011;66556;52.008;5.432;2023-03-01T05:20:30;10.21;;;8.1;;
59653;SDS011;66556;52.008;5.432;2023-03-01T05:23:43;11.1;;;8.31;;
59653;SDS011;66556;52.008;5.432;2023-03-01T05:25:20;11.1;;;8.31;;
59653;SDS011;66556;52.008;5.432;2023-03-01T05:26:57;10.8;;;8.6;;
59653;SDS011;66556;52.008;5.432;2023-03-01T05:28:34;13.0;;;9.21;;
59653;SDS011;66556;52.008;5.432;2023-03-01T05:31:48;13.9;;;9.5;;
59653;SDS011;66556;52.008;5.432;2023-03-01T05:33:25;17.3;;;9.9;;
59653;SDS011;66556;52.008;5.432;2023-03-01T05:35:03;12.1;;;9.6;;
59653;SDS011;66556;52.008;5.432;2023-03-01T05:38:16;16.0;;;11.0;;
59653;SDS011;66556;52.008;5.432;2023-03-01T05:39:52;13.7;;;10.1;;
59653;SDS011;66556;52.008;5.432;2023-03-01T05:41:28;13.7;;;10.1;;
59653;SDS011;66556;52.008;5.432;2023-03-01T05:44:41;12.9;;;9.9;;
59653;SDS011;66556;52.008;5.432;2023-03-01T05:46:18;13.8;;;10.21;;
59653;SDS011;66556;52.008;5.432;2023-03-01T05:47:54;20.8;;;10.8;;
59653;SDS011;66556;52.008;5.432;2023-03-01T05:49:31;15.7;;;10.9;;
59653;SDS011;66556;52.008;5.432;2023-03-01T05:52:43;17.2;;;11.2;;
59653;SDS011;66556;52.008;5.432;2023-03-01T05:54:21;15.4;;;10.5;;
59653;SDS011;66556;52.008;5.432;2023-03-01T05:55:59;18.11;;;11.5;;
59653;SDS011;66556;52.008;5.432;2023-03-01T05:59:11;14.6;;;11.5;;
59653;SDS011;66556;52.008;5.432;2023-03-01T06:00:47;16.0;;;11.8;;
59653;SDS011;66556;52.008;5.432;2023-03-01T06:02:24;15.4;;;11.8;;
59653;SDS011;66556;52.008;5.432;2023-03-01T06:05:38;17.41;;;12.1;;
59653;SDS011;66556;52.008;5.432;2023-03-01T06:07:15;17.8;;;12.5;;
59653;SDS011;66556;52.008;5.432;2023-03-01T06:08:51;18.41;;;13.3;;
59653;SDS011;66556;52.008;5.432;2023-03-01T06:10:28;16.9;;;12.3;;
59653;SDS011;66556;52.008;5.432;2023-03-01T06:13:42;22.2;;;13.0;;
59653;SDS011;66556;52.008;5.432;2023-03-01T06:15:19;21.9;;;13.7;;
59653;SDS011;66556;52.008;5.432;2023-03-01T06:16:57;17.91;;;13.1;;
59653;SDS011;66556;52.008;5.432;2023-03-01T06:20:12;15.5;;;12.6;;
59653;SDS011;66556;52.008;5.432;2023-03-01T06:21:50;18.91;;;12.9;;
59653;SDS011;66556;52.008;5.432;2023-03-01T06:23:26;18.41;;;12.4;;
59653;SDS011;66556;52.008;5.432;2023-03-01T06:26:40;16.11;;;12.4;;
59653;SDS011;66556;52.008;5.432;2023-03-01T06:28:16;17.61;;;12.5;;
59653;SDS011;66556;52.008;5.432;2023-03-01T06:29:53;18.41;;;12.7;;
59653;SDS011;66556;52.008;5.432;2023-03-01T06:31:29;17.7;;;12.4;;
59653;SDS011;66556;52.008;5.432;2023-03-01T06:34:41;16.4;;;11.8;;
59653;SDS011;66556;52.008;5.432;2023-03-01T06:36:17;19.3;;;13.5;;
59653;SDS011;66556;52.008;5.432;2023-03-01T06:37:53;20.0;;;13.2;;
59653;SDS011;66556;52.008;5.432;2023-03-01T06:41:06;17.41;;;12.6;;
59653;SDS011;66556;52.008;5.432;2023-03-01T06:42:44;17.0;;;12.9;;
59653;SDS011;66556;52.008;5.432;2023-03-01T06:44:25;19.8;;;13.1;;
59653;SDS011;66556;52.008;5.432;2023-03-01T06:46:03;20.7;;;13.3;;
59653;SDS011;66556;52.008;5.432;2023-03-01T06:49:16;21.3;;;13.5;;
59653;SDS011;66556;52.008;5.432;2023-03-01T06:50:52;20.3;;;13.8;;
59653;SDS011;66556;52.008;5.432;2023-03-01T06:52:29;19.61;;;13.3;;
59653;SDS011;66556;52.008;5.432;2023-03-01T06:55:43;18.91;;;13.6;;
59653;SDS011;66556;52.008;5.432;2023-03-01T06:57:19;17.41;;;13.5;;
59653;SDS011;66556;52.008;5.432;2023-03-01T06:58:55;20.41;;;13.8;;
59653;SDS011;66556;52.008;5.432;2023-03-01T07:02:09;19.0;;;12.6;;
59653;SDS011;66556;52.008;5.432;2023-03-01T07:03:46;17.8;;;12.6;;
59653;SDS011;66556;52.008;5.432;2023-03-01T07:05:23;19.2;;;12.8;;
59653;SDS011;66556;52.008;5.432;2023-03-01T07:06:59;17.3;;;12.2;;
59653;SDS011;66556;52.008;5.432;2023-03-01T07:10:11;17.3;;;11.9;;
59653;SDS011;66556;52.008;5.432;2023-03-01T07:11:48;18.0;;;12.8;;
59653;SDS011;66556;52.008;5.432;2023-03-01T07:13:25;18.5;;;12.1;;
59653;SDS011;66556;52.008;5.432;2023-03-01T07:16:40;15.2;;;11.9;;
59653;SDS011;66556;52.008;5.432;2023-03-01T07:18:16;17.61;;;11.5;;
59653;SDS011;66556;52.008;5.432;2023-03-01T07:19:52;16.3;;;11.6;;
59653;SDS011;66556;52.008;5.432;2023-03-01T07:23:06;16.3;;;12.5;;
59653;SDS011;66556;52.008;5.432;2023-03-01T07:24:43;18.8;;;12.1;;
59653;SDS011;66556;52.008;5.432;2023-03-01T07:26:19;16.4;;;11.7;;
59653;SDS011;66556;52.008;5.432;2023-03-01T07:27:55;20.0;;;11.6;;
59653;SDS011;66556;52.008;5.432;2023-03-01T07:31:07;16.7;;;11.8;;
59653;SDS011;66556;52.008;5.432;2023-03-01T07:32:43;16.11;;;11.2;;
59653;SDS011;66556;52.008;5.432;2023-03-01T07:34:20;16.8;;;12.0;;
59653;SDS011;66556;52.008;5.432;2023-03-01T07:37:33;17.91;;;12.1;;
59653;SDS011;66556;52.008;5.432;2023-03-01T07:39:09;16.8;;;11.9;;
59653;SDS011;66556;52.008;5.432;2023-03-01T07:40:46;16.11;;;11.3;;
59653;SDS011;66556;52.008;5.432;2023-03-01T07:43:59;17.11;;;11.4;;
59653;SDS011;66556;52.008;5.432;2023-03-01T07:45:35;20.8;;;11.8;;
59653;SDS011;66556;52.008;5.432;2023-03-01T07:47:11;17.11;;;11.6;;
59653;SDS011;66556;52.008;5.432;2023-03-01T07:48:47;20.6;;;11.3;;
59653;SDS011;66556;52.008;5.432;2023-03-01T07:51:59;17.8;;;11.7;;
59653;SDS011;66556;52.008;5.432;2023-03-01T07:53:36;19.3;;;12.1;;
59653;SDS011;66556;52.008;5.432;2023-03-01T07:55:13;18.0;;;11.5;;
59653;SDS011;66556;52.008;5.432;2023-03-01T07:58:26;18.5;;;11.9;;
59653;SDS011;66556;52.008;5.432;2023-03-01T08:00:03;19.8;;;12.1;;
59653;SDS011;66556;52.008;5.432;2023-03-01T08:01:40;18.11;;;11.9;;
59653;SDS011;66556;52.008;5.432;2023-03-01T08:04:53;18.91;;;11.6;;
59653;SDS011;66556;52.008;5.432;2023-03-01T08:06:29;17.2;;;11.8;;
59653;SDS011;66556;52.008;5.432;2023-03-01T08:08:05;17.91;;;11.4;;
59653;SDS011;66556;52.008;5.432;2023-03-01T08:09:41;17.91;;;11.3;;
59653;SDS011;66556;52.008;5.432;2023-03-01T08:12:54;14.4;;;10.7;;
59653;SDS011;66556;52.008;5.432;2023-03-01T08:14:30;17.5;;;11.3;;
59653;SDS011;66556;52.008;5.432;2023-03-01T08:16:07;16.7;;;11.1;;
59653;SDS011;66556;52.008;5.432;2023-03-01T08:19:25;14.9;;;11.4;;
59653;SDS011;66556;52.008;5.432;2023-03-01T08:21:02;15.9;;;10.9;;
59653;SDS011;66556;52.008;5.432;2023-03-01T08:22:40;17.3;;;10.4;;
59653;SDS011;66556;52.008;5.432;2023-03-01T08:25:52;15.7;;;10.5;;
59653;SDS011;66556;52.008;5.432;2023-03-01T08:27:28;15.8;;;10.8;;
59653;SDS011;66556;52.008;5.432;2023-03-01T08:29:04;15.6;;;11.5;;
59653;SDS011;66556;52.008;5.432;2023-03-01T08:30:40;16.0;;;10.1;;
59653;SDS011;66556;52.008;5.432;2023-03-01T08:33:54;18.2;;;10.3;;
59653;SDS011;66556;52.008;5.432;2023-03-01T08:35:33;14.1;;;9.9;;
59653;SDS011;66556;52.008;5.432;2023-03-01T08:37:09;15.9;;;9.81;;
59653;SDS011;66556;52.008;5.432;2023-03-01T08:40:21;14.8;;;9.71;;
59653;SDS011;66556;52.008;5.432;2023-03-01T08:41:58;18.0;;;10.9;;
59653;SDS011;66556;52.008;5.432;2023-03-01T08:43:34;13.0;;;9.4;;
59653;SDS011;66556;52.008;5.432;2023-03-01T08:46:47;15.4;;;9.0;;
59653;SDS011;66556;52.008;5.432;2023-03-01T08:48:23;16.0;;;9.71;;
59653;SDS011;66556;52.008;5.432;2023-03-01T08:50:01;14.0;;;10.1;;
59653;SDS011;66556;52.008;5.432;2023-03-01T08:51:38;13.5;;;9.9;;
59653;SDS011;66556;52.008;5.432;2023-03-01T08:54:51;12.9;;;9.21;;
59653;SDS011;66556;52.008;5.432;2023-03-01T08:56:27;17.61;;;9.9;;
59653;SDS011;66556;52.008;5.432;2023-03-01T08:58:03;12.3;;;8.4;;
59653;SDS011;66556;52.008;5.432;2023-03-01T09:01:16;13.1;;;9.21;;
59653;SDS011;66556;52.008;5.432;2023-03-01T09:02:55;12.5;;;8.31;;
59653;SDS011;66556;52.008;5.432;2023-03-01T09:04:31;14.0;;;8.9;;
59653;SDS011;66556;52.008;5.432;2023-03-01T09:07:44;12.6;;;8.71;;
59653;SDS011;66556;52.008;5.432;2023-03-01T09:09:20;15.6;;;8.71;;
59653;SDS011;66556;52.008;5.432;2023-03-01T09:10:56;14.5;;;8.0;;
59653;SDS011;66556;52.008;5.432;2023-03-01T09:12:32;13.1;;;8.1;;
59653;SDS011;66556;52.008;5.432;2023-03-01T09:15:45;12.4;;;8.0;;
59653;SDS011;66556;52.008;5.432;2023-03-01T09:17:21;12.9;;;8.1;;
59653;SDS011;66556;52.008;5.432;2023-03-01T09:18:57;12.5;;;6.5;;
59653;SDS011;66556;52.008;5.432;2023-03-01T09:22:09;11.6;;;7.7;;
59653;SDS011;66556;52.008;5.432;2023-03-01T09:23:46;8.1;;;5.5;;
59653;SDS011;66556;52.008;5.432;2023-03-01T09:25:24;8.4;;;6.1;;
59653;SDS011;66556;52.008;5.432;2023-03-01T09:28:36;10.9;;;6.3;;
59653;SDS011;66556;52.008;5.432;2023-03-01T09:30:14;8.9;;;5.9;;
59653;SDS011;66556;52.008;5.432;2023-03-01T09:31:49;9.5;;;5.9;;
59653;SDS011;66556;52.008;5.432;2023-03-01T09:33:26;10.0;;;5.8;;
59653;SDS011;66556;52.008;5.432;2023-03-01T09:36:40;8.0;;;5.3;;
59653;SDS011;66556;52.008;5.432;2023-03-01T09:38:16;10.4;;;6.0;;
59653;SDS011;66556;52.008;5.432;2023-03-01T09:39:52;8.31;;;6.0;;
59653;SDS011;66556;52.008;5.432;2023-03-01T09:43:34;8.9;;;6.0;;
59653;SDS011;66556;52.008;5.432;2023-03-01T09:45:26;9.1;;;6.2;;
59653;SDS011;66556;52.008;5.432;2023-03-01T09:47:09;12.5;;;6.4;;
59653;SDS011;66556;52.008;5.432;2023-03-01T09:48:55;8.81;;;6.1;;
59653;SDS011;66556;52.008;5.432;2023-03-01T09:50:38;9.9;;;6.0;;
59653;SDS011;66556;52.008;5.432;2023-03-01T09:52:20;8.1;;;5.5;;
59653;SDS011;66556;52.008;5.432;2023-03-01T09:55:43;7.9;;;5.11;;
59653;SDS011;66556;52.008;5.432;2023-03-01T09:57:25;6.0;;;4.91;;
59653;SDS011;66556;52.008;5.432;2023-03-01T09:59:09;7.9;;;5.5;;
59653;SDS011;66556;52.008;5.432;2023-03-01T10:00:59;7.7;;;4.7;;
59653;SDS011;66556;52.008;5.432;2023-03-01T10:02:47;5.8;;;3.5;;
59653;SDS011;66556;52.008;5.432;2023-03-01T10:06:19;7.2;;;4.61;;
59653;SDS011;66556;52.008;5.432;2023-03-01T10:08:01;7.6;;;3.9;;
59653;SDS011;66556;52.008;5.432;2023-03-01T10:10:01;7.5;;;3.8;;
59653;SDS011;66556;52.008;5.432;2023-03-01T10:11:41;6.9;;;3.9;;
59653;SDS011;66556;52.008;5.432;2023-03-01T10:13:22;6.8;;;3.7;;
59653;SDS011;66556;52.008;5.432;2023-03-01T10:18:29;5.2;;;3.9;;
59653;SDS011;66556;52.008;5.432;2023-03-01T10:20:14;7.0;;;4.3;;
59653;SDS011;66556;52.008;5.432;2023-03-01T10:22:00;7.9;;;4.2;;
59653;SDS011;66556;52.008;5.432;2023-03-01T10:23:45;7.0;;;4.3;;
59653;SDS011;66556;52.008;5.432;2023-03-01T10:27:22;6.8;;;4.41;;
59653;SDS011;66556;52.008;5.432;2023-03-01T10:29:02;7.0;;;4.2;;
59653;SDS011;66556;52.008;5.432;2023-03-01T10:30:40;6.1;;;4.1;;
59653;SDS011;66556;52.008;5.432;2023-03-01T10:35:33;8.1;;;4.5;;
59653;SDS011;66556;52.008;5.432;2023-03-01T10:37:11;8.1;;;4.5;;
59653;SDS011;66556;52.008;5.432;2023-03-01T10:38:49;5.9;;;3.4;;
59653;SDS011;66556;52.008;5.432;2023-03-01T10:40:27;5.3;;;3.5;;
59653;SDS011;66556;52.008;5.432;2023-03-01T10:43:55;5.9;;;3.9;;
59653;SDS011;66556;52.008;5.432;2023-03-01T10:45:33;5.0;;;3.5;;
59653;SDS011;66556;52.008;5.432;2023-03-01T10:47:15;5.4;;;3.7;;
59653;SDS011;66556;52.008;5.432;2023-03-01T10:49:05;5.9;;;3.5;;
59653;SDS011;66556;52.008;5.432;2023-03-01T10:51:06;6.3;;;3.6;;
59653;SDS011;66556;52.008;5.432;2023-03-01T10:54:34;5.6;;;3.4;;
59653;SDS011;66556;52.008;5.432;2023-03-01T10:56:10;5.3;;;3.9;;
59653;SDS011;66556;52.008;5.432;2023-03-01T10:57:48;7.0;;;3.7;;
59653;SDS011;66556;52.008;5.432;2023-03-01T10:59:27;6.3;;;3.7;;
59653;SDS011;66556;52.008;5.432;2023-03-01T11:03:08;5.11;;;3.3;;
59653;SDS011;66556;52.008;5.432;2023-03-01T11:05:16;4.7;;;3.5;;
59653;SDS011;66556;52.008;5.432;2023-03-01T11:06:58;5.5;;;4.0;;
59653;SDS011;66556;52.008;5.432;2023-03-01T11:10:17;5.8;;;3.7;;
59653;SDS011;66556;52.008;5.432;2023-03-01T11:11:57;4.8;;;3.6;;
59653;SDS011;66556;52.008;5.432;2023-03-01T11:15:25;5.4;;;3.8;;
59653;SDS011;66556;52.008;5.432;2023-03-01T11:17:04;6.7;;;3.8;;
59653;SDS011;66556;52.008;5.432;2023-03-01T11:18:55;15.3;;;4.61;;
59653;SDS011;66556;52.008;5.432;2023-03-01T11:20:33;4.7;;;3.4;;
59653;SDS011;66556;52.008;5.432;2023-03-01T11:22:12;8.0;;;3.5;;
59653;SDS011;66556;52.008;5.432;2023-03-01T11:25:30;9.9;;;3.4;;
59653;SDS011;66556;52.008;5.432;2023-03-01T11:27:15;6.6;;;3.5;;
59653;SDS011;66556;52.008;5.432;2023-03-01T11:29:00;16.61;;;4.3;;
59653;SDS011;66556;52.008;5.432;2023-03-01T11:30:44;10.0;;;3.9;;
59653;SDS011;66556;52.008;5.432;2023-03-01T11:34:24;5.9;;;3.6;;
59653;SDS011;66556;52.008;5.432;2023-03-01T11:36:26;6.1;;;3.6;;
59653;SDS011;66556;52.008;5.432;2023-03-01T11:38:12;4.61;;;3.6;;
59653;SDS011;66556;52.008;5.432;2023-03-01T11:39:58;4.1;;;3.4;;
59653;SDS011;66556;52.008;5.432;2023-03-01T11:41:42;4.91;;;3.7;;
59653;SDS011;66556;52.008;5.432;2023-03-01T11:43:27;4.7;;;3.3;;
59653;SDS011;66556;52.008;5.432;2023-03-01T11:45:10;5.2;;;3.6;;
59653;SDS011;66556;52.008;5.432;2023-03-01T11:50:34;5.4;;;3.5;;
59653;SDS011;66556;52.008;5.432;2023-03-01T11:52:18;5.5;;;3.6;;
59653;SDS011;66556;52.008;5.432;2023-03-01T11:54:09;5.2;;;3.6;;
59653;SDS011;66556;52.008;5.432;2023-03-01T11:56:04;5.8;;;3.6;;
59653;SDS011;66556;52.008;5.432;2023-03-01T11:57:59;4.8;;;3.9;;
59653;SDS011;66556;52.008;5.432;2023-03-01T12:00:06;6.7;;;4.2;;
59653;SDS011;66556;52.008;5.432;2023-03-01T12:02:02;6.2;;;4.0;;
59653;SDS011;66556;52.008;5.432;2023-03-01T12:05:06;5.6;;;3.8;;
59653;SDS011;66556;52.008;5.432;2023-03-01T12:07:56;8.1;;;4.1;;
59653;SDS011;66556;52.008;5.432;2023-03-01T12:09:48;4.91;;;3.7;;
59653;SDS011;66556;52.008;5.432;2023-03-01T12:11:47;5.0;;;3.8;;
59653;SDS011;66556;52.008;5.432;2023-03-01T12:13:43;5.3;;;3.7;;
59653;SDS011;66556;52.008;5.432;2023-03-01T12:15:50;8.5;;;4.0;;
59653;SDS011;66556;52.008;5.432;2023-03-01T12:17:54;5.7;;;3.6;;
59653;SDS011;66556;52.008;5.432;2023-03-01T12:19:54;5.4;;;3.9;;
59653;SDS011;66556;52.008;5.432;2023-03-01T12:21:52;5.7;;;4.1;;
59653;SDS011;66556;52.008;5.432;2023-03-01T12:23:49;6.0;;;4.0;;
59653;SDS011;66556;52.008;5.432;2023-03-01T12:26:57;5.0;;;3.8;;
59653;SDS011;66556;52.008;5.432;2023-03-01T12:28:55;5.0;;;3.8;;
59653;SDS011;66556;52.008;5.432;2023-03-01T12:31:05;6.5;;;4.0;;
59653;SDS011;66556;52.008;5.432;2023-03-01T12:33:50;6.6;;;4.0;;
59653;SDS011;66556;52.008;5.432;2023-03-01T12:35:36;8.1;;;5.2;;
59653;SDS011;66556;52.008;5.432;2023-03-01T12:37:29;14.4;;;8.71;;
59653;SDS011;66556;52.008;5.432;2023-03-01T12:41:21;6.4;;;4.0;;
59653;SDS011;66556;52.008;5.432;2023-03-01T12:43:48;5.0;;;4.0;;
59653;SDS011;66556;52.008;5.432;2023-03-01T12:47:35;7.2;;;5.7;;
59653;SDS011;66556;52.008;5.432;2023-03-01T12:49:32;8.1;;;7.3;;
59653;SDS011;66556;52.008;5.432;2023-03-01T12:51:16;6.4;;;5.0;;
59653;SDS011;66556;52.008;5.432;2023-03-01T12:52:57;5.3;;;3.7;;